Address 0x07e9aa40272429a4e2ee072208fdeb76407249a2 6

Txn Hash Method
Block
From
To
Value [Txn Fee]
0xf0f92563b69ab7cf93a0edd621dbe21137bd22ebe4cc11c87fa5c576adf27144Mint96917012022-01-17 13:15:4011 hrs 36 mins ago0x07e9aa40272429a4e2ee072208fdeb76407249a2OUT 0xed6aaf91a2b084bd594dbd1245be3691f9f637ac0 AVAX0.005423575 25
0xac2ae5c11fa072f67128caceae5c597e7357513183804ec2091c3aa26a8493aaMint96915072022-01-17 13:09:0911 hrs 42 mins ago0x07e9aa40272429a4e2ee072208fdeb76407249a2OUT 0xed6aaf91a2b084bd594dbd1245be3691f9f637ac0 AVAX0.00634625 25
0x5450983a4b535b1b23c7671bc8e3b6318309b9e5641e5814223cf0219c021a15Approve96914772022-01-17 13:08:1011 hrs 43 mins ago0x07e9aa40272429a4e2ee072208fdeb76407249a2OUT Avalanche Bridge: USDC.e0 AVAX0.0011804 25
0x0940a69d2fbba38c141d4e1bfab81b1b0353998594e7befe2e1d614204c46851Redeem96911352022-01-17 12:56:3711 hrs 55 mins ago0x07e9aa40272429a4e2ee072208fdeb76407249a2OUT 0x3039c26f9126833baca8edbf61c761cd909f461f0 AVAX0.004663021853 25.058962466
0x07f5c2bf8ca6950a2e98a28def805dcbe7851a3a5f1b2eee57ae56cf7cc108380x09a5fca396910622022-01-17 12:54:0811 hrs 57 mins ago0x07e9aa40272429a4e2ee072208fdeb76407249a2OUT 0x66357dcace80431aee0a7507e2e361b7e24023700 AVAX0.008554575 25
0x9b2475bcc2a9c0c37c010c299195806f335a5f5d4953f1b59cf05a8f1e43905fApprove96910422022-01-17 12:53:2911 hrs 58 mins ago0x07e9aa40272429a4e2ee072208fdeb76407249a2OUT 0x909b0ce4fac1a0dca78f8ca7430bbafeeca128710 AVAX0.001304353083 25.224875424
0x80a90dc4e49b54b9519e99caacb077f0f899d6cbb7d7c02683d4d143e4c2f5a0Withdraw96910212022-01-17 12:52:4811 hrs 59 mins ago0x07e9aa40272429a4e2ee072208fdeb76407249a2OUT 0xb0523f9f473812fb195ee49bc7d2ab9873a980440 AVAX0.00461425 25
0x379aa41b5222de48657d11744fd596bd345004598feebfa6bb79828b93bdde29Swap Exact Token...96907902022-01-17 12:45:0112 hrs 7 mins ago0x07e9aa40272429a4e2ee072208fdeb76407249a2OUT Trader Joe: Router0 AVAX0.004215978694 27.564784729
0xa162663851772ece3dd015e6d5cafef8cc9f0b0d6aa5507130d0451d6e569ddbMulti Claim96907782022-01-17 12:44:3612 hrs 7 mins ago0x07e9aa40272429a4e2ee072208fdeb76407249a2OUT 0xb0523f9f473812fb195ee49bc7d2ab9873a980440 AVAX0.003485870581 28.206031275
0xb2bea19a574c106feb4fa7150fd4f2c90a1fa9f50de7f5f591219d050a9f7327Withdraw96907652022-01-17 12:44:1012 hrs 7 mins ago0x07e9aa40272429a4e2ee072208fdeb76407249a2OUT 0x5857019c749147eee22b1fe63500f237f3c1b6920 AVAX0.005199385195 28.427785953
0x396a154f8b9edaa8b9206299e84b2fa60ce785f864258ec3b80f449583369144Claim96856652022-01-17 9:56:1814 hrs 55 mins ago0x07e9aa40272429a4e2ee072208fdeb76407249a2OUT 0x5857019c749147eee22b1fe63500f237f3c1b6920 AVAX0.004084125 25
0xa013a6a0a2d259aacb4fa40bf658de94b2096cae083b292943b58f7ab5ff7f3a0x415565b096805492022-01-17 7:07:2117 hrs 44 mins ago0x07e9aa40272429a4e2ee072208fdeb76407249a2OUT 0xdef1c0ded9bec7f1a1670819833240f027b25eff0 AVAX0.00665745 25
0x1aa74e0eab8ca1d42431c5da7c3fbbc77b5491611dec788f3a4b58108ce8d891Deposit96802542022-01-17 6:57:2217 hrs 54 mins ago0x07e9aa40272429a4e2ee072208fdeb76407249a2OUT 0x5857019c749147eee22b1fe63500f237f3c1b6920 AVAX0.005168175 25
0xa8b6b61b9b9d6b318e9b139e212d573001648a6839ce15982fdbf6549b3198b8Multi Claim96802342022-01-17 6:56:4117 hrs 55 mins ago0x07e9aa40272429a4e2ee072208fdeb76407249a2OUT 0xb0523f9f473812fb195ee49bc7d2ab9873a980440 AVAX0.0021425 25
0x14fafbeb7568862b6694b38e4d77b376fdd455d7160c129e8ea064d0fa7e9b820x415565b096802132022-01-17 6:55:5917 hrs 56 mins ago0x07e9aa40272429a4e2ee072208fdeb76407249a2OUT 0xdef1c0ded9bec7f1a1670819833240f027b25eff0 AVAX0.00955675 25
0xccb427cc56661595d20e50898de14728319ec94fcc97e735a3042055682828b4Redeem96801482022-01-17 6:53:4317 hrs 58 mins ago0x07e9aa40272429a4e2ee072208fdeb76407249a2OUT 0x3039c26f9126833baca8edbf61c761cd909f461f0 AVAX0.005053225 25
0xa4c9fa65999a3f5a8c6d5bf3df73ddb444e2f1c950884ea7c275acd485d9035eClaim96800772022-01-17 6:51:2018 hrs ago0x07e9aa40272429a4e2ee072208fdeb76407249a2OUT 0x5857019c749147eee22b1fe63500f237f3c1b6920 AVAX0.003186675 25
0x6580497923ed01f93634073d6897150df795687c7c246ae2f7fad07de0512d97Claim96669972022-01-16 23:43:431 day 1 hr ago0x07e9aa40272429a4e2ee072208fdeb76407249a2OUT 0x5857019c749147eee22b1fe63500f237f3c1b6920 AVAX0.004084125 25
0x980ccc3787070840faab2f9d9d5f51d7a4a32f80a94ebdb2abdc4b926bff8eb3Claim96533032022-01-16 16:12:491 day 8 hrs ago0x07e9aa40272429a4e2ee072208fdeb76407249a2OUT 0x5857019c749147eee22b1fe63500f237f3c1b6920 AVAX0.003186675 25
0xd3fdb92d9a33ad93db3981a1e795a47a321460cc36156044f215cfce63aa2834Claim96462172022-01-16 12:20:011 day 12 hrs ago0x07e9aa40272429a4e2ee072208fdeb76407249a2OUT 0x5857019c749147eee22b1fe63500f237f3c1b6920 AVAX0.004077975 25
0xe18aa3e5ef149c3468dc897066b816416e42370b96102222f19e1e22b98c77c8Claim96387352022-01-16 8:13:051 day 16 hrs ago0x07e9aa40272429a4e2ee072208fdeb76407249a2OUT 0x5857019c749147eee22b1fe63500f237f3c1b6920 AVAX0.004505475 25
0x00461c3932184414cf932472e2b6683582c946ae2116ec0d831334764591853d0x415565b096336682022-01-16 5:27:381 day 19 hrs ago0x07e9aa40272429a4e2ee072208fdeb76407249a2OUT 0xdef1c0ded9bec7f1a1670819833240f027b25eff0 AVAX0.0076049 25
0x69938eb8efa538cb4f0b883a849235526d856830270eaf11a0c008dbf57b238bMulti Claim96335832022-01-16 5:24:571 day 19 hrs ago0x07e9aa40272429a4e2ee072208fdeb76407249a2OUT 0xb0523f9f473812fb195ee49bc7d2ab9873a980440 AVAX0.00351715 25
0x1a42b8fb63defb16bbaf72e21901fe50b9c347f822f13b2ce7ca84737ffa7bf4Claim96330462022-01-16 5:08:101 day 19 hrs ago0x07e9aa40272429a4e2ee072208fdeb76407249a2OUT 0x5857019c749147eee22b1fe63500f237f3c1b6920 AVAX0.004077975 25
0x2589c73bc34e5f8c486b1249edd020de86c55753173e3079192ec1b2da7ee57dClaim96276822022-01-16 2:15:221 day 22 hrs ago0x07e9aa40272429a4e2ee072208fdeb76407249a2OUT 0x5857019c749147eee22b1fe63500f237f3c1b6920 AVAX0.004077975 25
[ Download CSV Export 
Latest 6 internal transactions
Parent Txn Hash Block From To Value
0xffa601367660554c5d0c36abab6801589804d60f937a7f650ddff7d48a4a48dc96043022022-01-15 13:40:202 days 11 hrs ago Trader Joe: Router0x07e9aa40272429a4e2ee072208fdeb76407249a2153.274492650738511422 AVAX
0xaf22e863e7527a2b1c421096c7d96e3fe600cd533e56bea10f4c8970b537984e96021232022-01-15 12:27:472 days 12 hrs ago 0xdb6f1920a889355780af7570773609bd8cb1f4980x07e9aa40272429a4e2ee072208fdeb76407249a211.019168257478417735 AVAX
0xdf1ead32f41cd1b86fa020abd3630ece7a5347fac83752d00d943dc1e4f6ca1a95677642022-01-14 17:47:503 days 7 hrs ago 0x3039c26f9126833baca8edbf61c761cd909f461f0x07e9aa40272429a4e2ee072208fdeb76407249a233.153207302678417398 AVAX
0xb38d384e59f9af7e975b678024aaf26ebcea9743816b777385935804fb060ae190816472022-01-03 12:32:0014 days 12 hrs ago 0xdb6f1920a889355780af7570773609bd8cb1f4980x07e9aa40272429a4e2ee072208fdeb76407249a224.346094548386717061 AVAX
0xee509c4e6496178a4111694f85c7eec89fb8138ff87db808179327b169b8dd6e87767242021-12-27 9:26:3221 days 15 hrs ago Trader Joe: Router0x07e9aa40272429a4e2ee072208fdeb76407249a20.002907467742630309 AVAX
0x984fb9cd214a21612caf1f070cd22c8f8d2ca0c20402922d0fb5c3991b48e23a87764582021-12-27 9:17:3921 days 15 hrs ago Trader Joe: Router0x07e9aa40272429a4e2ee072208fdeb76407249a2129.252644198604475943 AVAX
[ Download CSV Export 
Loading

Contract Name:
0

Compiler Version
0

Optimization Enabled:
0

Other Settings:
-NA-
Block Transaction Gas Used Reward
Age Block Fee Address BC Fee Address Voting Power Jailed Incoming
Block Uncle Number Difficulty Gas Used Reward
Loading
Make sure to use the "Vote Down" button for any spammy posts, and the "Vote Up" for interesting conversations.